Time,TemperatureF,DewpointF,PressureIn,WindDirection,WindDirectionDegrees,WindSpeedMPH,WindSpeedGustMPH,Humidity,HourlyPrecipIn,Conditions,Clouds,dailyrainin,SoftwareType,DateUTC
2013-06-27 00:02:00,75.1,68.5,29.82,NW,321,2.0,3.0,80,0.00,,,0.00,Wunderground PWS Mod,2013-06-27 04:02:00,
2013-06-27 00:04:00,75.6,69.0,29.82,NW,321,1.0,3.0,80,0.00,,,0.00,Wunderground PWS Mod,2013-06-27 04:04:00,
2013-06-27 00:06:00,76.6,69.2,29.83,NW,315,0.0,2.0,78,0.00,,,0.00,Wunderground PWS Mod,2013-06-27 04:06:00,
2013-06-27 00:12:00,77.6,69.0,29.82,NW,308,1.0,3.0,75,0.00,,,0.00,Wunderground PWS Mod,2013-06-27 04:12:00,
2013-06-27 00:14:00,77.6,68.7,29.82,NW,308,0.0,3.0,74,0.00,,,0.00,Wunderground PWS Mod,2013-06-27 04:14:00,
2013-06-27 00:22:00,76.7,68.6,29.82,NW,308,0.0,3.0,76,0.00,,,0.00,Wunderground PWS Mod,2013-06-27 04:22:00,
2013-06-27 00:24:00,76.5,68.4,29.82,NW,308,1.0,3.0,76,0.00,,,0.00,Wunderground PWS Mod,2013-06-27 04:24:00,
2013-06-27 00:32:00,76.4,69.0,29.83,NW,308,1.0,3.0,78,0.00,,,0.00,Wunderground PWS Mod,2013-06-27 04:32:00,
2013-06-27 00:38:00,77.3,68.8,29.82,NW,308,2.0,3.0,75,0.00,,,0.00,Wunderground PWS Mod,2013-06-27 04:38:00,
2013-06-27 00:44:00,76.5,68.0,29.82,NW,308,2.0,3.0,75,0.00,,,0.00,Wunderground PWS Mod,2013-06-27 04:44:00,
2013-06-27 00:50:00,76.0,69.4,29.82,NW,315,1.0,4.0,80,0.00,,,0.00,Wunderground PWS Mod,2013-06-27 04:50:00,
2013-06-27 00:52:00,75.5,68.2,29.82,NW,308,1.0,3.0,78,0.00,,,0.00,Wunderground PWS Mod,2013-06-27 04:52:00,
2013-06-27 00:58:00,74.3,67.4,29.82,NW,308,1.0,3.0,79,0.00,,,0.00,Wunderground PWS Mod,2013-06-27 04:58:00,
2013-06-27 01:04:00,73.7,67.5,29.82,WNW,288,0.0,2.0,81,0.00,,,0.00,Wunderground PWS Mod,2013-06-27 05:04:00,
2013-06-27 01:10:00,76.0,69.4,29.82,NW,315,1.0,4.0,80,0.00,,,0.00,Wunderground PWS Mod,2013-06-27 05:10:00,
2013-06-27 01:12:00,74.1,68.3,29.81,WNW,288,1.0,4.0,82,0.00,,,0.00,Wunderground PWS Mod,2013-06-27 05:12:00,
2013-06-27 01:18:00,74.9,67.6,29.81,WNW,288,2.0,4.0,78,0.00,,,0.00,Wunderground PWS Mod,2013-06-27 05:18:00,
2013-06-27 01:24:00,74.9,67.6,29.81,WNW,288,1.0,4.0,78,0.00,,,0.00,Wunderground PWS Mod,2013-06-27 05:24:00,
2013-06-27 01:32:00,73.9,67.0,29.80,WNW,288,1.0,4.0,79,0.00,,,0.00,Wunderground PWS Mod,2013-06-27 05:32:00,
2013-06-27 01:38:00,74.1,67.5,29.80,WNW,288,0.0,4.0,80,0.00,,,0.00,Wunderground PWS Mod,2013-06-27 05:38:00,
2013-06-27 01:44:00,74.0,67.1,29.80,WNW,288,0.0,4.0,79,0.00,,,0.00,Wunderground PWS Mod,2013-06-27 05:44:00,
2013-06-27 01:46:00,74.0,67.1,29.80,WNW,293,1.0,3.0,79,0.00,,,0.00,Wunderground PWS Mod,2013-06-27 05:46:00,
2013-06-27 01:52:00,73.8,66.9,29.80,WNW,288,1.0,4.0,79,0.00,,,0.00,Wunderground PWS Mod,2013-06-27 05:52:00,
2013-06-27 01:58:00,74.0,67.4,29.80,West,276,1.0,4.0,80,0.00,,,0.00,Wunderground PWS Mod,2013-06-27 05:58:00,
2013-06-27 02:04:00,74.2,66.9,29.80,West,276,1.0,4.0,78,0.00,,,0.00,Wunderground PWS Mod,2013-06-27 06:04:00,
2013-06-27 02:10:00,74.0,67.1,29.80,WNW,293,1.0,3.0,79,0.00,,,0.00,Wunderground PWS Mod,2013-06-27 06:10:00,
2013-06-27 02:12:00,74.0,66.7,29.80,West,276,1.0,4.0,78,0.00,,,0.00,Wunderground PWS Mod,2013-06-27 06:12:00,
2013-06-27 02:18:00,73.6,66.7,29.80,NW,319,1.0,4.0,79,0.00,,,0.00,Wunderground PWS Mod,2013-06-27 06:18:00,
2013-06-27 02:24:00,72.9,66.4,29.80,WNW,291,1.0,4.0,80,0.00,,,0.00,Wunderground PWS Mod,2013-06-27 06:24:00,
2013-06-27 02:32:00,72.2,66.4,29.80,WNW,291,1.0,4.0,82,0.00,,,0.00,Wunderground PWS Mod,2013-06-27 06:32:00,
2013-06-27 02:38:00,72.1,66.3,29.79,WNW,291,1.0,4.0,82,0.00,,,0.00,Wunderground PWS Mod,2013-06-27 06:38:00,
2013-06-27 02:44:00,71.9,66.5,29.79,WNW,291,2.0,6.0,83,0.00,,,0.00,Wunderground PWS Mod,2013-06-27 06:44:00,
2013-06-27 02:50:00,72.6,65.7,29.80,WNW,293,1.0,4.0,79,0.00,,,0.00,Wunderground PWS Mod,2013-06-27 06:50:00,
2013-06-27 02:52:00,72.9,67.4,29.79,WNW,293,1.0,6.0,83,0.00,,,0.00,Wunderground PWS Mod,2013-06-27 06:52:00,
2013-06-27 02:58:00,74.3,67.4,29.80,NW,312,1.0,6.0,79,0.00,,,0.00,Wunderground PWS Mod,2013-06-27 06:58:00,
2013-06-27 03:04:00,75.2,67.9,29.80,NW,310,2.0,4.0,78,0.00,,,0.00,Wunderground PWS Mod,2013-06-27 07:04:00,
2013-06-27 03:06:00,72.6,65.7,29.80,WNW,293,1.0,4.0,79,0.00,,,0.00,Wunderground PWS Mod,2013-06-27 07:06:00,
2013-06-27 03:08:00,72.6,65.7,29.80,WNW,293,1.0,4.0,79,0.00,,,0.00,Wunderground PWS Mod,2013-06-27 07:08:00,
2013-06-27 03:12:00,75.4,67.3,29.79,WNW,302,0.0,4.0,76,0.00,,,0.00,Wunderground PWS Mod,2013-06-27 07:12:00,
2013-06-27 03:18:00,75.1,67.0,29.79,WNW,302,1.0,4.0,76,0.00,,,0.00,Wunderground PWS Mod,2013-06-27 07:18:00,
2013-06-27 03:24:00,75.0,67.3,29.79,NW,305,1.0,4.0,77,0.00,,,0.00,Wunderground PWS Mod,2013-06-27 07:24:00,
2013-06-27 03:32:00,75.2,67.5,29.79,NW,308,1.0,4.0,77,0.00,,,0.00,Wunderground PWS Mod,2013-06-27 07:32:00,
2013-06-27 03:38:00,76.0,67.5,29.79,WNW,285,2.0,4.0,75,0.00,,,0.00,Wunderground PWS Mod,2013-06-27 07:38:00,
2013-06-27 03:44:00,75.4,66.9,29.79,WNW,284,0.0,4.0,75,0.00,,,0.00,Wunderground PWS Mod,2013-06-27 07:44:00,
2013-06-27 03:46:00,75.1,67.8,29.79,WNW,293,1.0,4.0,78,0.00,,,0.00,Wunderground PWS Mod,2013-06-27 07:46:00,
2013-06-27 03:52:00,74.6,67.3,29.79,WNW,284,1.0,4.0,78,0.00,,,0.00,Wunderground PWS Mod,2013-06-27 07:52:00,
2013-06-27 03:58:00,74.4,66.7,29.79,WNW,283,2.0,4.0,77,0.00,,,0.00,Wunderground PWS Mod,2013-06-27 07:58:00,
2013-06-27 04:04:00,74.3,67.0,29.79,West,268,1.0,4.0,78,0.00,,,0.00,Wunderground PWS Mod,2013-06-27 08:04:00,
2013-06-27 04:06:00,75.1,67.8,29.79,WNW,293,1.0,4.0,78,0.00,,,0.00,Wunderground PWS Mod,2013-06-27 08:06:00,
2013-06-27 04:08:00,75.1,67.8,29.79,WNW,293,1.0,4.0,78,0.00,,,0.00,Wunderground PWS Mod,2013-06-27 08:08:00,
2013-06-27 04:12:00,74.2,66.9,29.78,West,268,1.0,4.0,78,0.00,,,0.00,Wunderground PWS Mod,2013-06-27 08:12:00,
2013-06-27 04:18:00,74.9,67.2,29.79,West,268,1.0,4.0,77,0.00,,,0.00,Wunderground PWS Mod,2013-06-27 08:18:00,
2013-06-27 04:24:00,75.5,67.0,29.79,West,268,1.0,4.0,75,0.00,,,0.00,Wunderground PWS Mod,2013-06-27 08:24:00,
2013-06-27 04:32:00,74.2,66.5,29.79,West,268,1.0,4.0,77,0.00,,,0.00,Wunderground PWS Mod,2013-06-27 08:32:00,
2013-06-27 04:38:00,73.7,66.4,29.79,West,268,1.0,4.0,78,0.00,,,0.00,Wunderground PWS Mod,2013-06-27 08:38:00,
2013-06-27 04:44:00,73.9,67.0,29.79,West,268,1.0,4.0,79,0.00,,,0.00,Wunderground PWS Mod,2013-06-27 08:44:00,
2013-06-27 04:46:00,74.0,66.3,29.78,West,270,1.0,3.0,77,0.00,,,0.00,Wunderground PWS Mod,2013-06-27 08:46:00,
2013-06-27 04:52:00,74.0,66.7,29.79,West,268,1.0,4.0,78,0.00,,,0.00,Wunderground PWS Mod,2013-06-27 08:52:00,
2013-06-27 04:58:00,74.3,67.0,29.79,West,268,1.0,4.0,78,0.00,,,0.00,Wunderground PWS Mod,2013-06-27 08:58:00,
2013-06-27 05:04:00,74.3,66.6,29.78,West,268,1.0,4.0,77,0.00,,,0.00,Wunderground PWS Mod,2013-06-27 09:04:00,
2013-06-27 05:10:00,74.0,66.3,29.78,West,270,1.0,3.0,77,0.00,,,0.00,Wunderground PWS Mod,2013-06-27 09:10:00,
2013-06-27 05:12:00,73.2,65.9,29.79,West,268,2.0,4.0,78,0.00,,,0.00,Wunderground PWS Mod,2013-06-27 09:12:00,
2013-06-27 05:18:00,72.3,65.8,29.79,West,268,1.0,4.0,80,0.00,,,0.00,Wunderground PWS Mod,2013-06-27 09:18:00,
2013-06-27 05:24:00,71.6,65.8,29.79,West,268,1.0,4.0,82,0.00,,,0.00,Wunderground PWS Mod,2013-06-27 09:24:00,
2013-06-27 05:32:00,71.5,65.7,29.79,West,268,0.0,4.0,82,0.00,,,0.00,Wunderground PWS Mod,2013-06-27 09:32:00,
2013-06-27 05:38:00,71.3,65.9,29.80,West,268,2.0,4.0,83,0.00,,,0.00,Wunderground PWS Mod,2013-06-27 09:38:00,
2013-06-27 05:44:00,71.6,66.2,29.80,SSW,208,2.0,4.0,83,0.00,,,0.00,Wunderground PWS Mod,2013-06-27 09:44:00,
2013-06-27 05:52:00,71.0,65.6,29.80,SSW,197,1.0,4.0,83,0.00,,,0.00,Wunderground PWS Mod,2013-06-27 09:52:00,
2013-06-27 05:58:00,71.2,65.8,29.80,SSW,194,1.0,4.0,83,0.00,,,0.00,Wunderground PWS Mod,2013-06-27 09:58:00,
2013-06-27 06:04:00,72.5,66.3,29.80,SW,219,2.0,4.0,81,0.00,,,0.00,Wunderground PWS Mod,2013-06-27 10:04:00,
2013-06-27 06:10:00,71.3,65.5,29.81,SSW,203,2.0,6.0,82,0.00,,,0.00,Wunderground PWS Mod,2013-06-27 10:10:00,
2013-06-27 06:12:00,73.3,66.0,29.80,SW,216,1.0,6.0,78,0.00,,,0.00,Wunderground PWS Mod,2013-06-27 10:12:00,
2013-06-27 06:18:00,72.4,65.2,29.80,SW,234,1.0,6.0,78,0.00,,,0.00,Wunderground PWS Mod,2013-06-27 10:18:00,
2013-06-27 06:24:00,72.3,65.8,29.80,SW,224,3.0,6.0,80,0.00,,,0.00,Wunderground PWS Mod,2013-06-27 10:24:00,
2013-06-27 06:32:00,72.1,65.6,29.80,SW,224,2.0,6.0,80,0.00,,,0.00,Wunderground PWS Mod,2013-06-27 10:32:00,
2013-06-27 06:38:00,72.2,65.7,29.80,SW,224,2.0,6.0,80,0.00,,,0.00,Wunderground PWS Mod,2013-06-27 10:38:00,
2013-06-27 06:44:00,72.7,66.2,29.79,SW,224,1.0,6.0,80,0.00,,,0.00,Wunderground PWS Mod,2013-06-27 10:44:00,
2013-06-27 06:46:00,72.5,66.3,29.80,SW,225,2.0,6.0,81,0.00,,,0.00,Wunderground PWS Mod,2013-06-27 10:46:00,
2013-06-27 06:52:00,72.8,65.9,29.79,SW,224,2.0,6.0,79,0.00,,,0.00,Wunderground PWS Mod,2013-06-27 10:52:00,
2013-06-27 06:58:00,72.0,65.5,29.80,South,187,2.0,6.0,80,0.00,,,0.00,Wunderground PWS Mod,2013-06-27 10:58:00,
2013-06-27 07:04:00,71.7,65.6,29.80,South,187,2.0,5.0,81,0.00,,,0.00,Wunderground PWS Mod,2013-06-27 11:04:00,
2013-06-27 07:10:00,72.5,66.3,29.80,SW,225,2.0,6.0,81,0.00,,,0.00,Wunderground PWS Mod,2013-06-27 11:10:00,
2013-06-27 07:12:00,71.6,65.8,29.80,South,186,1.0,6.0,82,0.00,,,0.00,Wunderground PWS Mod,2013-06-27 11:12:00,
2013-06-27 07:18:00,71.6,66.2,29.80,South,184,1.0,6.0,83,0.00,,,0.00,Wunderground PWS Mod,2013-06-27 11:18:00,
2013-06-27 07:24:00,72.5,67.0,29.79,South,184,1.0,6.0,83,0.00,,,0.00,Wunderground PWS Mod,2013-06-27 11:24:00,
2013-06-27 07:32:00,74.5,67.2,29.79,South,185,2.0,6.0,78,0.00,,,0.00,Wunderground PWS Mod,2013-06-27 11:32:00,
2013-06-27 07:38:00,74.1,66.8,29.79,South,185,1.0,6.0,78,0.00,,,0.00,Wunderground PWS Mod,2013-06-27 11:38:00,
2013-06-27 07:44:00,73.6,66.3,29.79,South,185,4.0,6.0,78,0.00,,,0.00,Wunderground PWS Mod,2013-06-27 11:44:00,
2013-06-27 07:48:00,73.3,67.5,29.78,South,180,2.0,5.0,82,0.00,,,0.00,Wunderground PWS Mod,2013-06-27 11:48:00,
2013-06-27 07:52:00,72.7,66.2,29.79,SSW,197,3.0,6.0,80,0.00,,,0.00,Wunderground PWS Mod,2013-06-27 11:52:00,
2013-06-27 07:58:00,72.2,66.4,29.78,SSE,167,1.0,6.0,82,0.00,,,0.00,Wunderground PWS Mod,2013-06-27 11:58:00,
2013-06-27 08:04:00,71.8,66.4,29.78,SSE,152,1.0,5.0,83,0.00,,,0.00,Wunderground PWS Mod,2013-06-27 12:04:00,
2013-06-27 08:10:00,73.3,67.5,29.78,South,180,2.0,5.0,82,0.00,,,0.00,Wunderground PWS Mod,2013-06-27 12:10:00,
2013-06-27 08:12:00,72.0,66.6,29.78,SSE,148,2.0,5.0,83,0.00,,,0.00,Wunderground PWS Mod,2013-06-27 12:12:00,
2013-06-27 08:18:00,72.1,66.6,29.78,SSW,207,0.0,5.0,83,0.00,,,0.00,Wunderground PWS Mod,2013-06-27 12:18:00,
2013-06-27 08:24:00,73.7,67.1,29.78,SSW,207,1.0,5.0,80,0.00,,,0.00,Wunderground PWS Mod,2013-06-27 12:24:00,
2013-06-27 08:32:00,75.2,67.9,29.78,SSW,206,1.0,5.0,78,0.00,,,0.00,Wunderground PWS Mod,2013-06-27 12:32:00,
2013-06-27 08:38:00,74.9,67.2,29.78,SE,136,2.0,5.0,77,0.00,,,0.00,Wunderground PWS Mod,2013-06-27 12:38:00,
2013-06-27 08:44:00,74.7,67.8,29.78,SE,139,2.0,5.0,79,0.00,,,0.00,Wunderground PWS Mod,2013-06-27 12:44:00,
2013-06-27 08:48:00,74.5,67.6,29.78,SE,135,2.0,7.0,79,0.00,,,0.00,Wunderground PWS Mod,2013-06-27 12:48:00,
2013-06-27 08:52:00,74.0,67.1,29.78,SE,130,7.0,7.0,79,0.00,,,0.00,Wunderground PWS Mod,2013-06-27 12:52:00,
2013-06-27 08:58:00,73.8,67.2,29.78,SW,230,1.0,7.0,80,0.00,,,0.00,Wunderground PWS Mod,2013-06-27 12:58:00,
2013-06-27 09:04:00,74.8,67.5,29.78,SSE,153,3.0,4.0,78,0.00,,,0.00,Wunderground PWS Mod,2013-06-27 13:04:00,
2013-06-27 09:10:00,74.5,67.6,29.78,SE,135,2.0,7.0,79,0.00,,,0.00,Wunderground PWS Mod,2013-06-27 13:10:00,
2013-06-27 09:12:00,74.2,67.3,29.78,SE,140,3.0,7.0,79,0.00,,,0.00,Wunderground PWS Mod,2013-06-27 13:12:00,
2013-06-27 09:18:00,74.6,68.0,29.78,SE,144,1.0,7.0,80,0.00,,,0.00,Wunderground PWS Mod,2013-06-27 13:18:00,
2013-06-27 09:24:00,76.1,68.7,29.78,South,183,2.0,7.0,78,0.00,,,0.00,Wunderground PWS Mod,2013-06-27 13:24:00,
2013-06-27 09:32:00,76.0,67.9,29.77,SE,124,4.0,7.0,76,0.00,,,0.00,Wunderground PWS Mod,2013-06-27 13:32:00,
2013-06-27 09:38:00,75.5,67.8,29.77,SE,131,5.0,7.0,77,0.00,,,0.00,Wunderground PWS Mod,2013-06-27 13:38:00,
2013-06-27 09:44:00,75.7,68.7,29.77,SE,124,2.0,7.0,79,0.00,,,0.00,Wunderground PWS Mod,2013-06-27 13:44:00,
2013-06-27 09:46:00,76.0,67.9,29.76,SE,135,4.0,7.0,76,0.00,,,0.00,Wunderground PWS Mod,2013-06-27 13:46:00,
2013-06-27 09:52:00,76.2,68.5,29.76,ESE,113,4.0,7.0,77,0.00,,,0.00,Wunderground PWS Mod,2013-06-27 13:52:00,
2013-06-27 09:58:00,76.4,68.7,29.76,SE,126,3.0,7.0,77,0.00,,,0.00,Wunderground PWS Mod,2013-06-27 13:58:00,
2013-06-27 10:04:00,77.2,68.7,29.75,South,184,4.0,6.0,75,0.00,,,0.00,Wunderground PWS Mod,2013-06-27 14:04:00,
2013-06-27 10:10:00,76.0,67.9,29.76,SE,135,4.0,7.0,76,0.00,,,0.00,Wunderground PWS Mod,2013-06-27 14:10:00,
2013-06-27 10:12:00,77.5,68.6,29.76,SE,135,6.0,7.0,74,0.00,,,0.00,Wunderground PWS Mod,2013-06-27 14:12:00,
2013-06-27 10:18:00,78.1,68.7,29.75,SSE,154,6.0,7.0,73,0.00,,,0.00,Wunderground PWS Mod,2013-06-27 14:18:00,
2013-06-27 10:24:00,78.3,68.9,29.75,SSW,205,2.0,7.0,73,0.00,,,0.00,Wunderground PWS Mod,2013-06-27 14:24:00,
2013-06-27 10:32:00,78.7,69.3,29.75,SW,217,4.0,7.0,73,0.00,,,0.00,Wunderground PWS Mod,2013-06-27 14:32:00,
2013-06-27 10:38:00,79.9,69.2,29.75,SE,142,3.0,7.0,70,0.00,,,0.00,Wunderground PWS Mod,2013-06-27 14:38:00,
2013-06-27 10:44:00,79.9,69.7,29.75,ENE,78,1.0,9.0,71,0.00,,,0.00,Wunderground PWS Mod,2013-06-27 14:44:00,
2013-06-27 10:48:00,79.9,68.8,29.74,SE,135,4.0,10.0,69,0.00,,,0.00,Wunderground PWS Mod,2013-06-27 14:48:00,
2013-06-27 10:52:00,80.1,69.0,29.74,SE,132,3.0,9.0,69,0.00,,,0.00,Wunderground PWS Mod,2013-06-27 14:52:00,
2013-06-27 10:58:00,79.7,68.6,29.74,ESE,108,5.0,9.0,69,0.00,,,0.00,Wunderground PWS Mod,2013-06-27 14:58:00,
2013-06-27 11:04:00,80.3,68.8,29.74,SE,141,7.0,9.0,68,0.00,,,0.00,Wunderground PWS Mod,2013-06-27 15:04:00,
2013-06-27 11:10:00,79.9,68.8,29.74,SE,135,4.0,10.0,69,0.00,,,0.00,Wunderground PWS Mod,2013-06-27 15:10:00,
2013-06-27 11:12:00,80.2,69.1,29.74,SSE,159,6.0,10.0,69,0.00,,,0.00,Wunderground PWS Mod,2013-06-27 15:12:00,
2013-06-27 11:18:00,79.7,68.6,29.73,ESE,123,5.0,10.0,69,0.00,,,0.00,Wunderground PWS Mod,2013-06-27 15:18:00,
2013-06-27 11:24:00,80.2,69.1,29.73,ESE,116,5.0,10.0,69,0.00,,,0.00,Wunderground PWS Mod,2013-06-27 15:24:00,
2013-06-27 11:32:00,80.4,69.3,29.73,SE,144,6.0,10.0,69,0.00,,,0.00,Wunderground PWS Mod,2013-06-27 15:32:00,
2013-06-27 11:38:00,80.2,68.2,29.73,SE,136,4.0,10.0,67,0.00,,,0.00,Wunderground PWS Mod,2013-06-27 15:38:00,
2013-06-27 11:44:00,80.2,68.7,29.72,SE,144,3.0,12.0,68,0.00,,,0.00,Wunderground PWS Mod,2013-06-27 15:44:00,
2013-06-27 11:52:00,80.8,69.2,29.72,ESE,116,2.0,12.0,68,0.00,,,0.00,Wunderground PWS Mod,2013-06-27 15:52:00,
2013-06-27 11:58:00,81.6,69.1,29.72,SE,132,5.0,12.0,66,0.00,,,0.00,Wunderground PWS Mod,2013-06-27 15:58:00,
2013-06-27 12:04:00,80.8,68.8,29.72,ESE,115,3.0,12.0,67,0.00,,,0.00,Wunderground PWS Mod,2013-06-27 16:04:00,
2013-06-27 12:10:00,80.8,68.4,29.72,SE,135,5.0,10.0,66,0.00,,,0.00,Wunderground PWS Mod,2013-06-27 16:10:00,
2013-06-27 12:12:00,81.0,69.0,29.72,SE,141,8.0,12.0,67,0.00,,,0.00,Wunderground PWS Mod,2013-06-27 16:12:00,
2013-06-27 12:18:00,81.4,68.9,29.71,ESE,112,5.0,12.0,66,0.00,,,0.00,Wunderground PWS Mod,2013-06-27 16:18:00,
2013-06-27 12:24:00,81.0,68.6,29.71,ESE,111,11.0,12.0,66,0.00,,,0.00,Wunderground PWS Mod,2013-06-27 16:24:00,
2013-06-27 12:32:00,81.0,69.0,29.71,ESE,120,6.0,13.0,67,0.00,,,0.00,Wunderground PWS Mod,2013-06-27 16:32:00,
2013-06-27 12:38:00,82.0,69.5,29.70,South,179,5.0,13.0,66,0.00,,,0.00,Wunderground PWS Mod,2013-06-27 16:38:00,
2013-06-27 12:44:00,81.9,68.5,29.70,ESE,110,4.0,14.0,64,0.00,,,0.00,Wunderground PWS Mod,2013-06-27 16:44:00,
2013-06-27 12:48:00,81.7,69.2,29.70,ESE,113,7.0,14.0,66,0.00,,,0.00,Wunderground PWS Mod,2013-06-27 16:48:00,
2013-06-27 12:52:00,82.0,69.1,29.70,ESE,121,10.0,14.0,65,0.00,,,0.00,Wunderground PWS Mod,2013-06-27 16:52:00,
2013-06-27 12:58:00,81.4,68.9,29.69,SE,129,12.0,14.0,66,0.00,,,0.00,Wunderground PWS Mod,2013-06-27 16:58:00,
2013-06-27 13:04:00,81.9,69.0,29.70,ESE,114,9.0,14.0,65,0.00,,,0.00,Wunderground PWS Mod,2013-06-27 17:04:00,
2013-06-27 13:10:00,81.7,69.2,29.70,ESE,113,7.0,14.0,66,0.00,,,0.00,Wunderground PWS Mod,2013-06-27 17:10:00,
2013-06-27 13:12:00,82.4,69.0,29.69,SE,135,8.0,14.0,64,0.00,,,0.00,Wunderground PWS Mod,2013-06-27 17:12:00,
2013-06-27 13:18:00,81.6,68.7,29.69,ESE,118,4.0,14.0,65,0.00,,,0.00,Wunderground PWS Mod,2013-06-27 17:18:00,
2013-06-27 13:24:00,81.4,68.5,29.69,SE,143,5.0,14.0,65,0.00,,,0.00,Wunderground PWS Mod,2013-06-27 17:24:00,
2013-06-27 13:32:00,81.7,68.8,29.68,SE,133,6.0,14.0,65,0.00,,,0.00,Wunderground PWS Mod,2013-06-27 17:32:00,
2013-06-27 13:38:00,81.5,68.6,29.69,SSE,152,10.0,14.0,65,0.00,,,0.00,Wunderground PWS Mod,2013-06-27 17:38:00,
2013-06-27 13:44:00,81.3,68.9,29.68,ESE,112,6.0,14.0,66,0.00,,,0.00,Wunderground PWS Mod,2013-06-27 17:44:00,
2013-06-27 13:46:00,81.4,68.5,29.67,SE,135,7.0,14.0,65,0.00,,,0.00,Wunderground PWS Mod,2013-06-27 17:46:00,
2013-06-27 13:52:00,81.2,68.8,29.68,South,179,5.0,14.0,66,0.00,,,0.00,Wunderground PWS Mod,2013-06-27 17:52:00,
2013-06-27 13:58:00,81.5,69.0,29.67,SE,135,6.0,14.0,66,0.00,,,0.00,Wunderground PWS Mod,2013-06-27 17:58:00,
2013-06-27 14:04:00,82.0,68.6,29.67,SE,135,5.0,13.0,64,0.00,,,0.00,Wunderground PWS Mod,2013-06-27 18:04:00,
2013-06-27 14:10:00,81.4,68.5,29.67,SE,135,7.0,14.0,65,0.00,,,0.00,Wunderground PWS Mod,2013-06-27 18:10:00,
2013-06-27 14:12:00,82.2,68.8,29.67,South,170,3.0,14.0,64,0.00,,,0.00,Wunderground PWS Mod,2013-06-27 18:12:00,
2013-06-27 14:18:00,82.0,69.1,29.66,SE,133,10.0,14.0,65,0.00,,,0.00,Wunderground PWS Mod,2013-06-27 18:18:00,
2013-06-27 14:24:00,82.1,69.2,29.66,SE,132,7.0,14.0,65,0.00,,,0.00,Wunderground PWS Mod,2013-06-27 18:24:00,
2013-06-27 14:32:00,81.6,69.1,29.66,South,179,8.0,14.0,66,0.00,,,0.00,Wunderground PWS Mod,2013-06-27 18:32:00,
2013-06-27 14:38:00,81.5,69.0,29.66,SE,132,10.0,14.0,66,0.00,,,0.00,Wunderground PWS Mod,2013-06-27 18:38:00,
2013-06-27 14:44:00,81.2,69.2,29.65,SE,146,4.0,17.0,67,0.00,,,0.00,Wunderground PWS Mod,2013-06-27 18:44:00,
2013-06-27 14:48:00,80.9,71.4,29.65,SSE,158,7.0,17.0,73,0.01,,,0.01,Wunderground PWS Mod,2013-06-27 18:48:00,
2013-06-27 14:52:00,80.9,69.8,29.66,SSE,164,4.0,17.0,69,0.00,,,0.00,Wunderground PWS Mod,2013-06-27 18:52:00,
2013-06-27 14:58:00,79.5,69.7,29.65,SSE,154,6.0,17.0,72,0.00,,,0.00,Wunderground PWS Mod,2013-06-27 18:58:00,
2013-06-27 15:04:00,79.1,70.1,29.65,SSE,168,6.0,17.0,74,0.00,,,0.00,Wunderground PWS Mod,2013-06-27 19:04:00,
2013-06-27 15:10:00,80.9,71.4,29.65,SSE,158,7.0,17.0,73,0.01,,,0.01,Wunderground PWS Mod,2013-06-27 19:10:00,
2013-06-27 15:12:00,79.3,70.3,29.65,SSW,213,2.0,17.0,74,0.00,,,0.00,Wunderground PWS Mod,2013-06-27 19:12:00,
2013-06-27 15:18:00,80.0,69.3,29.65,SSW,207,15.0,17.0,70,0.00,,,0.00,Wunderground PWS Mod,2013-06-27 19:18:00,
2013-06-27 15:24:00,79.6,69.0,29.65,SW,230,5.0,17.0,70,0.00,,,0.00,Wunderground PWS Mod,2013-06-27 19:24:00,
2013-06-27 15:32:00,80.1,68.6,29.65,South,187,8.0,17.0,68,0.00,,,0.00,Wunderground PWS Mod,2013-06-27 19:32:00,
2013-06-27 15:38:00,80.1,68.6,29.64,SSW,212,0.0,17.0,68,0.00,,,0.00,Wunderground PWS Mod,2013-06-27 19:38:00,
2013-06-27 15:44:00,80.6,68.2,29.64,SW,231,4.0,17.0,66,0.00,,,0.00,Wunderground PWS Mod,2013-06-27 19:44:00,
2013-06-27 15:48:00,79.8,68.3,29.64,SSW,203,6.0,15.0,68,0.00,,,0.01,Wunderground PWS Mod,2013-06-27 19:48:00,
2013-06-27 15:52:00,79.3,67.4,29.64,SW,214,4.0,17.0,67,0.00,,,0.00,Wunderground PWS Mod,2013-06-27 19:52:00,
2013-06-27 15:58:00,78.7,66.8,29.64,SW,235,4.0,17.0,67,0.00,,,0.00,Wunderground PWS Mod,2013-06-27 19:58:00,
2013-06-27 16:03:00,78.0,66.6,29.64,NNW,335,2.0,15.0,68,0.00,,,0.00,Wunderground PWS Mod,2013-06-27 20:03:00,
2013-06-27 16:10:00,79.8,68.3,29.64,SSW,203,6.0,15.0,68,0.00,,,0.02,Wunderground PWS Mod,2013-06-27 20:10:00,
2013-06-27 16:12:00,76.9,66.8,29.63,WNW,295,6.0,15.0,71,0.00,,,0.00,Wunderground PWS Mod,2013-06-27 20:12:00,
2013-06-27 16:17:00,76.3,67.0,29.63,West,272,2.0,15.0,73,0.00,,,0.00,Wunderground PWS Mod,2013-06-27 20:17:00,
2013-06-27 16:24:00,75.9,67.4,29.63,NW,316,1.0,15.0,75,0.00,,,0.00,Wunderground PWS Mod,2013-06-27 20:24:00,
2013-06-27 16:32:00,76.2,67.7,29.63,WSW,241,3.0,15.0,75,0.00,,,0.00,Wunderground PWS Mod,2013-06-27 20:32:00,
2013-06-27 16:38:00,76.1,67.6,29.62,SSW,209,6.0,15.0,75,0.00,,,0.00,Wunderground PWS Mod,2013-06-27 20:38:00,
2013-06-27 16:44:00,76.4,67.9,29.62,SW,226,2.0,17.0,75,0.00,,,0.00,Wunderground PWS Mod,2013-06-27 20:44:00,
2013-06-27 16:46:00,76.4,67.5,29.61,SW,225,3.0,10.0,74,0.01,,,0.02,Wunderground PWS Mod,2013-06-27 20:46:00,
2013-06-27 16:52:00,76.7,67.8,29.61,SSW,206,6.0,17.0,74,0.00,,,0.00,Wunderground PWS Mod,2013-06-27 20:52:00,
2013-06-27 16:58:00,76.4,67.5,29.61,SW,218,5.0,17.0,74,0.00,,,0.00,Wunderground PWS Mod,2013-06-27 20:58:00,
2013-06-27 17:04:00,76.6,67.3,29.61,West,270,6.0,17.0,73,0.00,,,0.00,Wunderground PWS Mod,2013-06-27 21:04:00,
2013-06-27 17:10:00,76.4,67.5,29.61,SW,225,3.0,10.0,74,0.01,,,0.02,Wunderground PWS Mod,2013-06-27 21:10:00,
2013-06-27 17:18:00,75.7,67.6,29.61,SSW,201,1.0,17.0,76,0.00,,,0.00,Wunderground PWS Mod,2013-06-27 21:18:00,
2013-06-27 17:24:00,76.8,67.9,29.60,SW,234,3.0,17.0,74,0.00,,,0.00,Wunderground PWS Mod,2013-06-27 21:24:00,
2013-06-27 17:32:00,76.9,67.2,29.60,West,267,8.0,17.0,72,0.00,,,0.00,Wunderground PWS Mod,2013-06-27 21:32:00,
2013-06-27 17:42:00,77.0,67.7,29.60,WNW,296,3.0,17.0,73,0.00,,,0.00,Wunderground PWS Mod,2013-06-27 21:42:00,
2013-06-27 17:46:00,77.2,67.1,29.61,West,270,5.0,12.0,71,0.00,,,0.02,Wunderground PWS Mod,2013-06-27 21:46:00,
2013-06-27 17:48:00,76.9,67.6,29.61,West,262,4.0,17.0,73,0.00,,,0.00,Wunderground PWS Mod,2013-06-27 21:48:00,
2013-06-27 17:56:00,77.6,67.9,29.61,SSW,203,4.0,17.0,72,0.00,,,0.00,Wunderground PWS Mod,2013-06-27 21:56:00,
2013-06-27 18:02:00,78.8,68.6,29.61,SW,234,5.0,11.0,71,0.00,,,0.00,Wunderground PWS Mod,2013-06-27 22:02:00,
2013-06-27 18:07:00,79.6,68.5,29.61,WNW,286,8.0,12.0,69,0.00,,,0.00,Wunderground PWS Mod,2013-06-27 22:07:00,
2013-06-27 18:10:00,77.2,67.1,29.61,West,270,5.0,12.0,71,0.00,,,0.02,Wunderground PWS Mod,2013-06-27 22:10:00,
2013-06-27 18:12:00,77.2,67.1,29.61,West,270,5.0,12.0,71,0.00,,,0.02,Wunderground PWS Mod,2013-06-27 22:12:00,
2013-06-27 18:16:00,79.2,68.1,29.61,SW,226,2.0,12.0,69,0.00,,,0.00,Wunderground PWS Mod,2013-06-27 22:16:00,
2013-06-27 18:22:00,78.6,68.4,29.61,West,276,4.0,12.0,71,0.00,,,0.00,Wunderground PWS Mod,2013-06-27 22:22:00,
2013-06-27 18:28:00,78.7,68.1,29.61,SW,235,2.0,12.0,70,0.00,,,0.00,Wunderground PWS Mod,2013-06-27 22:28:00,
2013-06-27 18:34:00,78.5,67.9,29.61,West,263,8.0,12.0,70,0.00,,,0.00,Wunderground PWS Mod,2013-06-27 22:34:00,
2013-06-27 18:42:00,78.4,68.6,29.62,WSW,248,3.0,12.0,72,0.00,,,0.00,Wunderground PWS Mod,2013-06-27 22:42:00,
2013-06-27 18:48:00,79.4,68.8,29.61,SW,225,1.0,12.0,70,0.00,,,0.00,Wunderground PWS Mod,2013-06-27 22:48:00,
2013-06-27 18:53:00,80.0,68.9,29.62,West,280,2.0,12.0,69,0.00,,,0.00,Wunderground PWS Mod,2013-06-27 22:53:00,
2013-06-27 19:02:00,80.2,68.7,29.62,WSW,256,5.0,12.0,68,0.00,,,0.00,Wunderground PWS Mod,2013-06-27 23:02:00,
2013-06-27 19:10:00,79.2,67.7,29.62,WSW,248,4.0,13.0,68,0.00,,,0.02,Wunderground PWS Mod,2013-06-27 23:10:00,
2013-06-27 19:12:00,79.2,67.7,29.62,WSW,248,4.0,13.0,68,0.00,,,0.02,Wunderground PWS Mod,2013-06-27 23:12:00,
2013-06-27 19:14:00,79.4,68.3,29.62,West,264,4.0,13.0,69,0.00,,,0.00,Wunderground PWS Mod,2013-06-27 23:14:00,
2013-06-27 19:22:00,79.6,68.1,29.62,West,261,8.0,13.0,68,0.00,,,0.00,Wunderground PWS Mod,2013-06-27 23:22:00,
2013-06-27 19:28:00,79.4,68.3,29.62,SW,235,5.0,13.0,69,0.00,,,0.00,Wunderground PWS Mod,2013-06-27 23:28:00,
2013-06-27 19:34:00,79.8,68.3,29.62,SSW,204,4.0,13.0,68,0.00,,,0.00,Wunderground PWS Mod,2013-06-27 23:34:00,
2013-06-27 19:43:00,78.9,68.3,29.62,SSW,206,4.0,13.0,70,0.00,,,0.00,Wunderground PWS Mod,2013-06-27 23:43:00,
2013-06-27 19:56:00,78.0,67.8,29.62,SW,225,1.0,13.0,71,0.00,,,0.00,Wunderground PWS Mod,2013-06-27 23:56:00,
2013-06-27 20:04:00,78.0,67.4,29.62,SW,228,3.0,11.0,70,0.00,,,0.00,Wunderground PWS Mod,2013-06-28 00:04:00,
2013-06-27 20:10:00,78.8,68.2,29.62,SSW,203,4.0,10.0,70,0.00,,,0.02,Wunderground PWS Mod,2013-06-28 00:10:00,
2013-06-27 20:15:00,79.3,67.8,29.62,WSW,256,4.0,11.0,68,0.00,,,0.00,Wunderground PWS Mod,2013-06-28 00:15:00,
2013-06-27 20:24:00,79.3,67.8,29.62,SW,218,4.0,11.0,68,0.00,,,0.00,Wunderground PWS Mod,2013-06-28 00:24:00,
2013-06-27 20:34:00,78.9,67.4,29.62,SSW,205,6.0,11.0,68,0.00,,,0.00,Wunderground PWS Mod,2013-06-28 00:34:00,
2013-06-27 20:42:00,78.1,67.5,29.63,SW,232,4.0,11.0,70,0.00,,,0.00,Wunderground PWS Mod,2013-06-28 00:42:00,
2013-06-27 20:48:00,78.5,67.5,29.63,SSW,197,7.0,11.0,69,0.00,,,0.00,Wunderground PWS Mod,2013-06-28 00:48:00,
2013-06-27 20:53:00,78.6,67.2,29.63,SW,214,3.0,11.0,68,0.00,,,0.00,Wunderground PWS Mod,2013-06-28 00:53:00,
2013-06-27 21:04:00,78.9,67.4,29.63,SW,228,2.0,11.0,68,0.00,,,0.00,Wunderground PWS Mod,2013-06-28 01:04:00,
2013-06-27 21:10:00,78.5,67.1,29.63,SSW,203,4.0,9.0,68,0.00,,,0.02,Wunderground PWS Mod,2013-06-28 01:10:00,
2013-06-27 21:12:00,78.1,67.1,29.63,SW,218,4.0,11.0,69,0.00,,,0.00,Wunderground PWS Mod,2013-06-28 01:12:00,
2013-06-27 21:18:00,77.6,67.0,29.64,SSW,200,5.0,11.0,70,0.00,,,0.00,Wunderground PWS Mod,2013-06-28 01:18:00,
2013-06-27 21:24:00,77.4,67.3,29.63,SW,218,5.0,11.0,71,0.00,,,0.00,Wunderground PWS Mod,2013-06-28 01:24:00,
2013-06-27 21:32:00,77.2,67.1,29.63,SSW,202,7.0,11.0,71,0.00,,,0.00,Wunderground PWS Mod,2013-06-28 01:32:00,
2013-06-27 21:38:00,77.0,66.9,29.64,SSW,211,3.0,11.0,71,0.00,,,0.00,Wunderground PWS Mod,2013-06-28 01:38:00,
2013-06-27 21:44:00,77.1,67.0,29.64,SW,215,4.0,11.0,71,0.00,,,0.00,Wunderground PWS Mod,2013-06-28 01:44:00,
2013-06-27 21:46:00,77.2,66.2,29.65,SSW,203,5.0,14.0,69,0.00,,,0.02,Wunderground PWS Mod,2013-06-28 01:46:00,
2013-06-27 21:53:00,77.2,67.1,29.64,WSW,255,1.0,11.0,71,0.00,,,0.00,Wunderground PWS Mod,2013-06-28 01:53:00,
2013-06-27 22:02:00,77.2,66.2,29.65,SW,214,5.0,11.0,69,0.00,,,0.00,Wunderground PWS Mod,2013-06-28 02:02:00,
2013-06-27 22:08:00,76.7,66.2,29.64,WSW,257,1.0,14.0,70,0.00,,,0.00,Wunderground PWS Mod,2013-06-28 02:08:00,
2013-06-27 22:10:00,77.2,66.2,29.65,SSW,203,5.0,14.0,69,0.00,,,0.02,Wunderground PWS Mod,2013-06-28 02:10:00,
2013-06-27 22:12:00,77.2,66.2,29.65,SSW,203,5.0,14.0,69,0.00,,,0.02,Wunderground PWS Mod,2013-06-28 02:12:00,
2013-06-27 22:13:00,76.5,66.0,29.64,SSW,200,2.0,14.0,70,0.00,,,0.00,Wunderground PWS Mod,2013-06-28 02:13:00,
2013-06-27 22:22:00,77.1,66.1,29.64,West,264,2.0,14.0,69,0.00,,,0.00,Wunderground PWS Mod,2013-06-28 02:22:00,
2013-06-27 22:27:00,76.8,66.3,29.64,West,268,1.0,14.0,70,0.00,,,0.00,Wunderground PWS Mod,2013-06-28 02:27:00,
2013-06-27 22:34:00,77.3,65.9,29.64,SW,230,0.0,14.0,68,0.00,,,0.00,Wunderground PWS Mod,2013-06-28 02:34:00,
2013-06-27 22:42:00,76.9,66.0,29.64,SSW,203,5.0,14.0,69,0.00,,,0.00,Wunderground PWS Mod,2013-06-28 02:42:00,
2013-06-27 22:47:00,76.2,65.7,29.63,South,184,0.0,14.0,70,0.00,,,0.00,Wunderground PWS Mod,2013-06-28 02:47:00,
2013-06-27 22:50:00,76.7,65.8,29.64,SSW,203,3.0,8.0,69,0.00,,,0.02,Wunderground PWS Mod,2013-06-28 02:50:00,
2013-06-27 22:52:00,76.7,65.8,29.64,SSW,203,3.0,8.0,69,0.00,,,0.02,Wunderground PWS Mod,2013-06-28 02:52:00,
2013-06-27 22:54:00,76.4,65.9,29.63,SSW,204,2.0,14.0,70,0.00,,,0.00,Wunderground PWS Mod,2013-06-28 02:54:00,
2013-06-27 23:03:00,77.0,66.0,29.63,WSW,243,2.0,12.0,69,0.00,,,0.00,Wunderground PWS Mod,2013-06-28 03:03:00,
2013-06-27 23:10:00,76.7,65.8,29.64,SSW,203,3.0,8.0,69,0.00,,,0.02,Wunderground PWS Mod,2013-06-28 03:10:00,
2013-06-27 23:12:00,76.3,66.2,29.63,SW,233,2.0,12.0,71,0.00,,,0.00,Wunderground PWS Mod,2013-06-28 03:12:00,
2013-06-27 23:18:00,75.8,65.7,29.63,South,174,11.0,12.0,71,0.00,,,0.00,Wunderground PWS Mod,2013-06-28 03:18:00,
2013-06-27 23:23:00,76.0,66.3,29.63,SW,216,0.0,12.0,72,0.00,,,0.00,Wunderground PWS Mod,2013-06-28 03:23:00,
2013-06-27 23:33:00,77.2,66.7,29.63,SW,235,5.0,12.0,70,0.00,,,0.00,Wunderground PWS Mod,2013-06-28 03:33:00,
2013-06-27 23:42:00,76.8,66.3,29.63,SW,220,3.0,12.0,70,0.00,,,0.00,Wunderground PWS Mod,2013-06-28 03:42:00,
2013-06-27 23:50:00,76.6,67.3,29.62,SW,225,2.0,7.0,73,0.00,,,0.02,Wunderground PWS Mod,2013-06-28 03:50:00,
2013-06-27 23:52:00,76.5,66.4,29.62,SW,228,0.0,12.0,71,0.00,,,0.00,Wunderground PWS Mod,2013-06-28 03:52:00,
2013-06-27 23:58:00,76.0,66.3,29.62,SSW,208,4.0,12.0,72,0.00,,,0.00,Wunderground PWS Mod,2013-06-28 03:58:00,